Main page
METAR-TAF:

METAR-TAF

Airports :

Rhodes International Airport

Rhodes, Greece

latitude: 36-24N, longitude: 028-05E, elevation: 4 m

Current weather observation

The report was made 24 minutes ago, at 02:20 UTC
Wind 10 kt from the West/Southwest
Temperature 25°C
Humidity 79%
Pressure 1003 hPa
Visibility 10 km or more
no clouds below 1500 m and no cumulonimbus

METAR: LGRP 180220Z 24010KT CAVOK 25/21 Q1003 NOSIG

Time: 05:44 (02:44 UTC)

Forecast

The report was made 3 hours and 44 minutes ago, at 23:00 UTC
Forecast valid from 18 at 00 UTC to 18 at 24 UTC
Wind 15 kt from the West
Visibility 10 km or more
Few clouds at a height of 1800 ft

TAF: LGRP 172300Z 1800/1824 26015KT 9999 FEW018

Weather observations and forecasts of more than 4000 airports (METAR and TAF reports).

The available stations are represented by yellow and red dots on the map.

Hover mouse over dot to see the name of the station.

Then click to see weather observations and forecasts.

To change the map : click on the green buttons with a black cross to zoom in, on the green button with a dash to zoom out, or on the green arrows for adjacent maps.


METAR-TAF: